New Richmond, Indiana
Current Conditions -  °F | °C
As of 3:54 PM on Friday 28 Nov 2014 (Local Time) from KLAF Reporting Station
Clear Clear  
Wind Chill: 24°   Ceiling: Unl
Heat Index: 33°   Visibility: 10mi
Dew Point: 22°   Wind: 13mph
Humidity: 64%   Direction: 160°SSE
Pressure: 30.09"   Gusts: NA
Location:  40.2°N, 86.98°W
Report Text: KLAF 282054Z 16011KT 10SM CLR 01/M06 A3009 RMK AO2 SLP194 T00061056 56039
Loading
Personal Weather Stations






























Interactive Weather Map New forecast layout! Learn more

10-Day Weather Forecast

Advertisements
Track Severe Weather on mobile